Time;durP1;ratioP1;P1;durP2;ratioP2;P2;SDS_P1;SDS_P2;PMS_P1;PMS_P2;Temp;Humidity;BMP_temperature;BMP_pressure;BME280_temperature;BME280_humidity;BME280_pressure;Samples;Min_cycle;Max_cycle;Signal;HPM_P1;HPM_P2
2023/06/29 00:01:29;;;;;;;;;;;13.40;99.90;;;12.28;85.70;101213.38;4971244;28;19917;-74
2023/06/29 00:03:54;;;;;;;;;;;13.40;99.90;;;12.25;85.94;101219.66;4970116;28;19917;-72
2023/06/29 00:06:20;;;;;;;;;;;13.40;99.90;;;12.24;86.27;101207.38;4971563;28;19957;-73
2023/06/29 00:08:48;;;;;;;;;;;13.40;99.90;;;12.24;86.60;101209.16;4957381;28;19910;-73
2023/06/29 00:11:13;;;;;;;;;;;13.40;99.90;;;12.24;87.16;101206.50;4970592;28;20473;-73
2023/06/29 00:13:39;;;;;;;;;;;13.30;99.90;;;12.23;88.67;101207.47;4970291;28;19923;-72
2023/06/29 00:16:05;;;;;;;;;;;13.30;99.90;;;12.17;88.06;101208.59;4971908;28;19914;-72
2023/06/29 00:18:32;;;;;;;;;;;13.30;99.90;;;12.01;89.37;101203.16;4954252;28;19913;-73
2023/06/29 00:21:00;;;;;;;;;;;13.20;99.90;;;11.90;90.40;101205.41;4971100;28;19918;-73
2023/06/29 00:23:26;;;;;;;;;;;13.20;99.90;;;11.86;88.54;101206.44;4970049;28;20342;-72
2023/06/29 00:25:56;;;;;;;;;;;13.10;99.90;;;11.82;87.96;101203.06;4969020;28;19922;-74
2023/06/29 00:28:21;;;;;;;;;;;13.00;99.90;;;11.80;87.48;101210.19;4956411;28;19917;-73
2023/06/29 00:30:47;;;;;;;;;;;13.00;99.90;;;11.81;88.14;101205.78;4971384;28;19914;-72
2023/06/29 00:33:13;;;;;;;;;;;13.00;99.90;;;11.82;87.58;101202.22;4971516;28;19961;-72
2023/06/29 00:35:38;;;;;;;;;;;13.00;99.90;;;11.83;87.78;101202.13;4970107;28;20396;-73
2023/06/29 00:38:04;;;;;;;;;;;13.00;99.90;;;11.85;88.16;101202.94;4970992;28;19910;-73
2023/06/29 00:40:30;;;;;;;;;;;13.00;99.90;;;11.89;87.74;101211.59;4970439;28;19954;-72
2023/06/29 00:42:56;;;;;;;;;;;15.20;99.90;;;11.90;88.07;101205.41;4970734;28;19925;-72
2023/06/29 00:45:21;;;;;;;;;;;14.20;99.90;;;11.92;88.51;101195.63;4955599;28;19918;-72
2023/06/29 00:47:47;;;;;;;;;;;13.00;99.90;;;11.93;88.28;101201.78;4971623;28;19979;-72
2023/06/29 00:50:13;;;;;;;;;;;13.00;99.90;;;11.95;88.17;101208.69;4971109;28;19918;-73
2023/06/29 00:52:39;;;;;;;;;;;13.00;99.90;;;11.96;88.65;101199.00;4968557;28;19929;-73
2023/06/29 00:55:06;;;;;;;;;;;13.10;99.90;;;11.96;87.94;101205.13;4971752;28;20016;-72
2023/06/29 00:57:32;;;;;;;;;;;13.00;99.90;;;11.96;87.86;101199.00;4970786;28;20021;-73
2023/06/29 01:00:00;;;;;;;;;;;13.00;99.90;;;11.94;87.39;101201.69;4955035;28;20406;-72
2023/06/29 01:02:29;;;;;;;;;;;13.00;99.90;;;11.91;87.68;101196.56;4968016;28;19914;-72
2023/06/29 01:04:56;;;;;;;;;;;13.00;99.90;;;11.88;88.05;101186.16;4969307;28;19965;-73
2023/06/29 01:07:42;;;;;;;;;;;13.00;99.90;;;11.86;88.33;101193.25;4962444;28;19969;-73
2023/06/29 01:10:10;;;;;;;;;;;13.00;99.90;;;11.84;87.86;101184.53;4964159;28;19918;-73
2023/06/29 01:12:36;;;;;;;;;;;12.90;99.90;;;11.81;87.86;101180.22;4969750;28;19965;-72
2023/06/29 01:15:03;;;;;;;;;;;12.90;99.90;;;11.80;87.29;101182.97;4969685;28;19921;-74
2023/06/29 01:17:31;;;;;;;;;;;12.90;99.90;;;11.78;87.25;101179.53;4970736;28;19918;-74
2023/06/29 01:19:57;;;;;;;;;;;12.90;99.90;;;11.76;87.08;101176.09;4970759;28;19914;-73
2023/06/29 01:22:46;;;;;;;;;;;12.90;99.90;;;11.71;86.43;101171.03;4969224;28;20118;-73
2023/06/29 01:25:12;;;;;;;;;;;12.80;99.90;;;11.68;87.32;101169.41;4959346;28;19957;-74
2023/06/29 01:27:43;;;;;;;;;;;12.80;99.90;;;11.64;88.56;101167.81;4969743;28;19910;-73
2023/06/29 01:30:10;;;;;;;;;;;12.80;99.90;;;11.62;88.28;101163.50;4969566;28;20383;-75
2023/06/29 01:32:37;;;;;;;;;;;12.70;99.90;;;11.62;88.96;101171.41;4972312;28;19914;-72
2023/06/29 01:35:03;;;;;;;;;;;12.70;99.90;;;11.59;89.07;101171.56;4971649;28;19918;-73
2023/06/29 01:37:37;;;;;;;;;;;12.70;99.90;;;11.45;90.15;101167.75;4969317;28;20445;-74
2023/06/29 01:40:06;;;;;;;;;;;12.70;99.90;;;11.28;89.35;101175.53;4970456;28;19921;-73
2023/06/29 01:42:32;;;;;;;;;;;12.50;99.90;;;11.14;87.98;101168.19;4971330;28;19910;-73
2023/06/29 01:45:04;;;;;;;;;;;12.40;99.90;;;11.01;87.51;101159.94;4970756;28;20334;-74
2023/06/29 01:47:30;;;;;;;;;;;12.30;99.90;;;10.95;86.95;101154.06;4970271;28;20479;-73
2023/06/29 01:49:55;;;;;;;;;;;12.20;99.90;;;10.93;87.16;101150.63;4968909;28;19914;-72
2023/06/29 01:52:22;;;;;;;;;;;12.10;99.90;;;10.94;87.74;101160.25;4970746;28;19920;-72
2023/06/29 01:54:48;;;;;;;;;;;12.10;99.90;;;10.97;88.04;101165.41;4973684;28;20013;-72
2023/06/29 01:57:14;;;;;;;;;;;12.10;99.90;;;10.99;88.22;101156.53;4974351;28;19918;-72
2023/06/29 01:59:39;;;;;;;;;;;12.10;99.90;;;11.02;88.50;101163.44;4972005;28;19913;-73
2023/06/29 02:02:06;;;;;;;;;;;12.20;99.90;;;11.05;89.00;101165.94;4972433;28;19913;-72
2023/06/29 02:04:32;;;;;;;;;;;12.20;99.90;;;11.09;89.52;101163.13;4972021;28;20433;-72
2023/06/29 02:06:58;;;;;;;;;;;12.20;99.90;;;11.15;89.98;101169.06;4958919;28;19910;-72
2023/06/29 02:09:24;;;;;;;;;;;12.20;99.90;;;11.18;90.01;101169.78;4974912;28;19984;-72
2023/06/29 02:11:49;;;;;;;;;;;12.30;99.90;;;11.21;90.21;101168.78;4972653;28;19922;-73
2023/06/29 02:14:18;;;;;;;;;;;12.30;99.90;;;11.23;90.70;101166.94;4970041;28;19914;-72
2023/06/29 02:16:49;;;;;;;;;;;12.30;99.90;;;11.28;92.86;101167.63;4975128;28;19941;-73
2023/06/29 02:19:14;;;;;;;;;;;12.40;99.90;;;11.29;93.45;101166.69;4962430;28;20001;-72
2023/06/29 02:21:40;;;;;;;;;;;12.40;99.90;;;11.31;93.45;101167.47;4972270;28;20286;-72
2023/06/29 02:24:06;;;;;;;;;;;12.40;99.90;;;11.34;93.18;101169.13;4972440;28;19921;-73
2023/06/29 02:26:31;;;;;;;;;;;12.40;99.90;;;11.34;92.83;101167.38;4972222;28;19950;-72
2023/06/29 02:28:57;;;;;;;;;;;12.40;99.90;;;11.35;92.11;101157.66;4973276;28;19916;-72
2023/06/29 02:31:24;;;;;;;;;;;12.40;99.90;;;11.34;92.53;101162.09;4974880;28;19921;-72
2023/06/29 02:33:50;;;;;;;;;;;12.40;99.90;;;11.36;91.89;101162.00;4973915;28;19928;-73
2023/06/29 02:36:17;;;;;;;;;;;12.40;99.90;;;11.36;91.20;101162.00;4971789;28;20004;-72
2023/06/29 02:38:43;;;;;;;;;;;12.40;99.90;;;11.39;91.92;101169.81;4970837;28;19926;-73
2023/06/29 02:41:09;;;;;;;;;;;12.50;99.90;;;11.41;94.59;101171.44;4976344;28;19917;-72
2023/06/29 02:43:35;;;;;;;;;;;12.50;99.90;;;11.42;97.95;101174.94;4972538;28;19928;-73
2023/06/29 02:46:00;;;;;;;;;;;12.50;99.90;;;11.42;99.35;101172.28;4972748;28;19914;-72
2023/06/29 02:48:26;;;;;;;;;;;12.50;99.90;;;11.44;99.80;101163.38;4973419;28;19910;-73
2023/06/29 02:50:52;;;;;;;;;;;12.60;99.90;;;11.48;100.00;101175.53;4955732;28;20298;-75
2023/06/29 02:53:18;;;;;;;;;;;12.60;99.90;;;11.50;99.36;101171.03;4971441;28;20368;-73
2023/06/29 02:55:44;;;;;;;;;;;12.60;99.90;;;11.50;100.00;101168.41;4974129;28;19947;-73
2023/06/29 02:58:09;;;;;;;;;;;12.60;99.90;;;11.55;100.00;101172.63;4972441;28;19910;-72
2023/06/29 03:00:35;;;;;;;;;;;12.60;99.90;;;11.54;100.00;101166.50;4970298;28;19917;-72
2023/06/29 03:03:01;;;;;;;;;;;12.60;99.90;;;11.58;100.00;101165.44;4972048;28;19910;-72
2023/06/29 03:05:26;;;;;;;;;;;12.70;99.90;;;11.63;100.00;101166.09;4974873;28;19918;-72
2023/06/29 03:07:52;;;;;;;;;;;12.70;99.90;;;11.69;100.00;101170.25;4974974;28;19909;-74
2023/06/29 03:10:19;;;;;;;;;;;12.70;99.90;;;11.72;100.00;101171.88;4970887;28;19918;-72
2023/06/29 03:12:45;;;;;;;;;;;12.80;99.90;;;11.68;100.00;101164.13;4970575;28;19932;-72
2023/06/29 03:15:10;;;;;;;;;;;12.70;99.90;;;11.64;97.93;101162.53;4975361;28;19913;-74
2023/06/29 03:17:36;;;;;;;;;;;12.70;99.90;;;11.55;95.50;101162.94;4972663;28;20480;-72
2023/06/29 03:20:03;;;;;;;;;;;12.70;99.90;;;11.50;94.30;101167.56;4973208;28;19942;-72
2023/06/29 03:22:29;;;;;;;;;;;12.60;99.90;;;11.50;93.09;101164.91;4953352;28;19918;-73
2023/06/29 03:24:54;;;;;;;;;;;12.50;99.90;;;11.53;91.61;101161.28;4986279;28;20538;-74
2023/06/29 03:27:20;;;;;;;;;;;12.60;99.90;;;11.58;91.05;101176.00;4972521;28;19910;-72
2023/06/29 03:29:49;;;;;;;;;;;12.60;99.90;;;11.65;90.23;101169.53;4972350;28;19964;-72
2023/06/29 03:32:15;;;;;;;;;;;12.60;99.90;;;11.78;90.51;101179.53;4969927;28;20004;-72
2023/06/29 03:34:41;;;;;;;;;;;12.70;99.90;;;11.90;91.12;101185.16;4975732;23;20401;-76
2023/06/29 03:37:07;;;;;;;;;;;12.80;99.90;;;12.02;91.39;101182.88;4951439;28;19910;-78
2023/06/29 03:39:33;;;;;;;;;;;12.90;99.90;;;12.18;91.21;101188.31;4949255;28;19915;-77
2023/06/29 03:41:58;;;;;;;;;;;13.00;99.90;;;12.57;90.93;101195.31;4934085;29;19914;-77
2023/06/29 03:44:24;;;;;;;;;;;13.50;99.90;;;13.99;89.38;101204.97;4944727;28;19919;-76
2023/06/29 03:46:50;;;;;;;;;;;14.90;99.90;;;15.70;85.58;101214.75;4933024;29;19915;-77
2023/06/29 03:49:15;;;;;;;;;;;16.30;99.90;;;17.46;78.86;101215.97;4948152;29;19965;-77
2023/06/29 03:51:41;;;;;;;;;;;17.90;99.90;;;19.13;71.72;101226.41;4946564;29;19922;-76
2023/06/29 03:54:07;;;;;;;;;;;19.40;99.90;;;20.42;66.19;101232.50;4931999;29;19910;-77
2023/06/29 03:56:33;;;;;;;;;;;20.70;99.90;;;20.97;63.15;101229.84;4931221;29;19915;-77
2023/06/29 03:58:59;;;;;;;;;;;21.10;99.90;;;20.51;62.63;101226.38;4931769;29;19930;-77
2023/06/29 04:01:24;;;;;;;;;;;20.90;99.90;;;21.30;61.36;101234.22;4931191;29;20651;-77
2023/06/29 04:03:50;;;;;;;;;;;21.60;99.90;;;21.30;60.88;101239.59;4931060;29;19914;-77
2023/06/29 04:06:16;;;;;;;;;;;21.70;99.90;;;20.93;60.24;101231.94;4931837;29;19953;-77
2023/06/29 04:08:42;;;;;;;;;;;21.40;99.90;;;20.36;60.67;101232.97;4931046;29;19918;-77
2023/06/29 04:11:09;;;;;;;;;;;21.00;99.90;;;21.19;59.81;101239.66;4947247;28;19947;-77
2023/06/29 04:13:35;;;;;;;;;;;21.50;99.90;;;22.47;58.16;101257.25;4945696;28;19918;-77
2023/06/29 04:16:01;;;;;;;;;;;22.30;99.90;;;24.23;55.06;101276.94;4930746;29;19914;-77
2023/06/29 04:18:27;;;;;;;;;;;23.60;99.90;;;25.75;52.27;101288.88;4931507;29;20409;-77
2023/06/29 04:20:53;;;;;;;;;;;24.90;99.90;;;27.09;49.89;101299.22;4930621;29;19906;-78
2023/06/29 04:23:19;;;;;;;;;;;26.10;99.90;;;28.22;47.65;101310.22;4914818;29;19911;-77
2023/06/29 04:25:45;;;;;;;;;;;27.10;99.90;;;29.27;45.77;101316.41;4946598;28;19929;-78
2023/06/29 04:28:14;;;;;;;;;;;28.00;99.30;;;30.18;44.38;101323.59;4947237;29;19922;-77
2023/06/29 04:30:40;;;;;;;;;;;28.80;97.60;;;30.97;43.02;101327.59;4945946;28;20423;-77
2023/06/29 04:33:10;;;;;;;;;;;29.60;96.70;;;31.63;41.88;101341.91;4930510;29;19910;-77
2023/06/29 04:35:43;;;;;;;;;;;30.20;95.90;;;32.11;40.72;101346.72;4946205;28;19925;-77
2023/06/29 04:38:10;;;;;;;;;;;30.70;94.70;;;32.57;40.08;101356.25;4930587;29;19926;-77
2023/06/29 04:40:36;;;;;;;;;;;31.10;94.30;;;33.14;39.74;101365.97;4944550;28;19978;-77
2023/06/29 04:43:02;;;;;;;;;;;31.50;94.40;;;33.73;38.51;101363.59;4946011;29;19918;-77
2023/06/29 04:45:31;;;;;;;;;;;31.90;93.60;;;34.29;38.09;101372.19;4946918;29;19945;-77
2023/06/29 04:47:58;;;;;;;;;;;32.30;93.70;;;34.91;37.30;101377.28;4930377;29;19918;-77
2023/06/29 04:50:31;;;;;;;;;;;32.80;93.20;;;35.44;36.72;101387.13;4947043;28;19922;-77
2023/06/29 04:52:58;;;;;;;;;;;33.20;93.10;;;36.00;36.13;101388.19;4944433;29;19960;-78
2023/06/29 04:55:24;;;;;;;;;;;33.70;92.70;;;36.57;35.37;101393.53;4930211;29;19977;-77
2023/06/29 04:57:51;;;;;;;;;;;34.10;92.40;;;37.07;34.95;101402.47;4930674;29;20347;-77
2023/06/29 05:00:17;;;;;;;;;;;34.50;91.90;;;37.56;34.14;101407.94;4930770;29;19921;-77
2023/06/29 05:02:43;;;;;;;;;;;34.80;91.60;;;37.96;33.54;101416.38;4945284;28;19911;-77
2023/06/29 05:05:09;;;;;;;;;;;35.20;91.40;;;38.31;33.44;101410.09;4930627;29;19918;-77
2023/06/29 05:07:35;;;;;;;;;;;35.50;90.70;;;38.79;32.95;101410.88;4930891;29;19945;-77
2023/06/29 05:10:01;;;;;;;;;;;35.80;90.20;;;39.10;32.42;101408.78;4945635;28;19914;-77
2023/06/29 05:12:27;;;;;;;;;;;36.10;90.10;;;39.58;32.00;101401.97;4930042;29;19914;-78
2023/06/29 05:14:52;;;;;;;;;;;36.50;90.10;;;40.06;31.86;101405.25;4945424;28;19917;-77
2023/06/29 05:17:18;;;;;;;;;;;36.80;90.00;;;40.42;31.33;101401.13;4946558;28;19958;-78
2023/06/29 05:19:44;;;;;;;;;;;37.20;88.80;;;40.68;30.62;101412.50;4929948;29;20471;-77
2023/06/29 05:22:11;;;;;;;;;;;37.50;88.20;;;40.94;29.94;101408.16;4930602;29;19991;-78
2023/06/29 05:24:40;;;;;;;;;;;37.70;86.50;;;41.40;30.27;101409.50;4930544;29;19914;-78
2023/06/29 05:27:06;;;;;;;;;;;38.00;86.50;;;41.90;29.07;101406.63;4934004;29;19930;-77
2023/06/29 05:29:32;;;;;;;;;;;38.20;85.20;;;42.29;29.39;101414.66;4953076;29;19922;-77
2023/06/29 05:31:57;;;;;;;;;;;38.60;86.50;;;42.74;29.36;101411.31;4951102;28;19911;-77
2023/06/29 05:34:23;;;;;;;;;;;39.00;85.90;;;43.12;28.30;101409.25;4935110;29;19978;-77
2023/06/29 05:36:49;;;;;;;;;;;39.40;83.40;;;43.41;28.10;101412.34;4936046;29;19985;-76
2023/06/29 05:39:14;;;;;;;;;;;39.60;83.50;;;43.75;28.16;101403.50;4952496;28;19915;-78
2023/06/29 05:41:40;;;;;;;;;;;39.90;83.80;;;44.14;27.85;101400.16;4937438;29;20005;-78
2023/06/29 05:44:06;;;;;;;;;;;40.30;83.00;;;44.46;27.46;101390.66;4936749;29;19914;-78
2023/06/29 05:46:35;;;;;;;;;;;40.60;82.10;;;44.48;26.96;101385.66;4935953;29;20591;-78
2023/06/29 05:49:01;;;;;;;;;;;41.00;81.10;;;44.66;26.73;101380.56;4936300;29;21633;-77
2023/06/29 05:51:26;;;;;;;;;;;41.10;80.30;;;44.71;26.22;101372.19;4936384;29;20291;-77
2023/06/29 05:53:52;;;;;;;;;;;41.30;79.20;;;44.63;27.13;101357.81;4951830;28;19911;-78
2023/06/29 05:56:18;;;;;;;;;;;41.40;79.50;;;44.84;26.46;101360.50;4935698;29;20400;-79
2023/06/29 05:58:44;;;;;;;;;;;41.50;78.50;;;44.87;26.65;101353.56;4937946;29;19911;-79
2023/06/29 06:01:10;;;;;;;;;;;41.70;78.10;;;44.91;26.97;101349.09;4936223;29;19914;-76
2023/06/29 06:03:35;;;;;;;;;;;41.90;78.80;;;44.91;26.08;101341.56;4936904;29;20394;-78
2023/06/29 06:06:02;;;;;;;;;;;42.10;76.80;;;44.97;27.01;101337.66;4936497;29;19915;-77
2023/06/29 06:08:27;;;;;;;;;;;42.30;77.60;;;45.03;26.70;101330.91;4936218;29;19962;-77
2023/06/29 06:10:53;;;;;;;;;;;42.40;76.70;;;44.94;26.04;101327.09;4920198;29;19915;-78
2023/06/29 06:13:19;;;;;;;;;;;42.50;76.00;;;44.91;26.44;101330.47;4951939;28;19918;-77
2023/06/29 06:15:45;;;;;;;;;;;42.60;76.10;;;44.97;26.17;101326.53;4935631;29;19914;-77
2023/06/29 06:18:11;;;;;;;;;;;42.70;74.20;;;45.22;25.77;101331.03;4952428;28;19910;-77
2023/06/29 06:20:36;;;;;;;;;;;42.80;73.80;;;45.01;26.28;101324.84;4932069;29;19923;-78
2023/06/29 06:23:02;;;;;;;;;;;42.90;75.10;;;44.98;24.96;101319.84;4935100;29;20376;-78
2023/06/29 06:25:28;;;;;;;;;;;43.00;71.20;;;45.50;26.51;101314.72;4935815;29;19923;-78
2023/06/29 06:27:53;;;;;;;;;;;43.10;75.90;;;45.73;24.99;101313.13;4950382;28;20372;-77
2023/06/29 06:30:20;;;;;;;;;;;43.30;72.70;;;45.93;25.87;101311.25;4935275;29;19938;-78
2023/06/29 06:32:46;;;;;;;;;;;43.70;74.30;;;45.96;23.57;101310.63;4934469;29;19910;-77
2023/06/29 06:35:12;;;;;;;;;;;43.90;68.00;;;46.09;24.61;101307.16;4935947;29;19915;-78
2023/06/29 06:37:38;;;;;;;;;;;44.10;70.70;;;46.24;24.40;101318.09;4949561;28;19930;-77
2023/06/29 06:40:08;;;;;;;;;;;44.30;69.10;;;45.93;23.99;101311.25;4933353;29;20624;-77
2023/06/29 06:42:37;;;;;;;;;;;44.40;68.10;;;42.70;25.28;101277.28;4916664;29;20415;-79
2023/06/29 06:45:05;;;;;;;;;;;43.50;64.90;;;40.26;29.12;101250.25;4931047;29;19911;-77
2023/06/29 06:47:32;;;;;;;;;;;41.80;69.60;;;38.28;30.64;101217.25;4947504;28;20403;-77
2023/06/29 06:49:58;;;;;;;;;;;40.10;70.90;;;36.21;32.83;101192.38;4933080;29;19921;-78
2023/06/29 06:52:23;;;;;;;;;;;38.30;71.90;;;34.59;34.58;101177.53;4933800;29;19919;-77
2023/06/29 06:54:50;;;;;;;;;;;36.60;74.80;;;33.44;36.52;101160.91;4947610;28;20265;-77
2023/06/29 06:57:16;;;;;;;;;;;35.20;77.10;;;32.47;38.33;101158.47;4948516;28;19910;-77
2023/06/29 06:59:41;;;;;;;;;;;34.00;80.20;;;31.48;39.79;101148.78;4932045;29;20392;-77
2023/06/29 07:02:07;;;;;;;;;;;33.00;81.70;;;30.58;40.96;101141.25;4932050;29;20360;-77
2023/06/29 07:04:33;;;;;;;;;;;31.60;84.60;;;30.04;42.45;101146.06;4947777;28;20368;-77
2023/06/29 07:06:59;;;;;;;;;;;31.20;85.60;;;29.48;44.03;101150.25;4948538;29;19925;-77
2023/06/29 07:09:25;;;;;;;;;;;30.60;87.80;;;28.87;44.79;101150.25;4932586;29;19969;-77
2023/06/29 07:11:50;;;;;;;;;;;30.00;89.20;;;28.52;45.96;101150.69;4931940;29;19911;-77
2023/06/29 07:14:16;;;;;;;;;;;29.60;90.10;;;28.37;45.87;101147.00;4930795;29;19915;-76
2023/06/29 07:16:42;;;;;;;;;;;29.20;90.60;;;28.18;46.41;101151.00;4932786;29;19977;-77
2023/06/29 07:19:11;;;;;;;;;;;28.90;90.90;;;28.09;47.75;101154.78;4933460;29;20385;-77
2023/06/29 07:21:37;;;;;;;;;;;28.70;91.70;;;27.99;47.35;101147.72;4930653;29;20366;-77
2023/06/29 07:24:03;;;;;;;;;;;28.50;91.80;;;28.01;47.97;101145.69;4947775;28;19938;-77
2023/06/29 07:26:29;;;;;;;;;;;28.40;92.40;;;27.99;47.87;101136.91;4946960;28;19989;-78
2023/06/29 07:28:54;;;;;;;;;;;28.40;92.30;;;27.90;47.53;101145.22;4931864;29;20393;-76
2023/06/29 07:31:27;;;;;;;;;;;28.20;91.80;;;27.98;47.48;101129.78;4932621;29;20286;-77
2023/06/29 07:33:54;;;;;;;;;;;28.30;92.30;;;27.93;46.47;101132.19;4945545;28;19915;-77
2023/06/29 07:36:20;;;;;;;;;;;28.20;91.50;;;27.80;47.49;101126.44;4930861;29;19910;-77
2023/06/29 07:38:46;;;;;;;;;;;28.10;92.30;;;27.86;47.24;101133.03;4946978;28;19978;-77
2023/06/29 07:41:12;;;;;;;;;;;28.10;92.10;;;27.88;47.09;101123.72;4931867;29;19919;-77
2023/06/29 07:43:45;;;;;;;;;;;28.10;92.10;;;27.88;47.11;101126.44;4931060;29;20658;-78
2023/06/29 07:46:11;;;;;;;;;;;28.00;91.70;;;28.16;46.95;101123.25;4932543;29;20614;-76
2023/06/29 07:48:37;;;;;;;;;;;28.20;92.10;;;28.25;45.99;101129.47;4947181;28;19926;-77
2023/06/29 07:51:03;;;;;;;;;;;28.40;91.70;;;28.48;45.75;101118.69;4931404;29;20413;-77
2023/06/29 07:53:30;;;;;;;;;;;28.50;91.60;;;28.40;44.96;101125.84;4930468;29;19923;-78
2023/06/29 07:55:55;;;;;;;;;;;28.60;91.00;;;28.50;45.24;101124.78;4947195;28;20379;-77
2023/06/29 07:58:21;;;;;;;;;;;28.60;91.00;;;28.32;45.87;101128.59;4946448;29;19921;-77
2023/06/29 08:00:47;;;;;;;;;;;28.60;91.30;;;28.27;45.37;101125.56;4947444;29;19921;-78
2023/06/29 08:03:12;;;;;;;;;;;28.50;91.20;;;28.27;45.89;101125.56;4930468;29;19915;-76
2023/06/29 08:05:38;;;;;;;;;;;28.50;91.40;;;27.99;46.46;101117.94;4931261;29;19918;-77
2023/06/29 08:08:04;;;;;;;;;;;28.40;91.40;;;27.95;45.90;101118.47;4946504;28;19917;-78
2023/06/29 08:10:30;;;;;;;;;;;28.30;91.10;;;27.89;45.43;101111.91;4946171;28;19919;-77
2023/06/29 08:12:59;;;;;;;;;;;28.20;91.00;;;27.82;45.30;101102.78;4934360;29;19925;-77
2023/06/29 08:15:28;;;;;;;;;;;28.20;90.90;;;28.36;45.84;101112.84;4950779;28;19911;-76
2023/06/29 08:17:54;;;;;;;;;;;28.30;91.80;;;29.44;43.63;101123.50;4949743;28;19918;-76
2023/06/29 08:20:22;;;;;;;;;;;28.80;91.20;;;30.33;41.68;101138.91;4935391;29;20394;-77
2023/06/29 08:22:48;;;;;;;;;;;29.40;90.10;;;31.01;41.16;101138.56;4948498;28;20001;-77
2023/06/29 08:25:18;;;;;;;;;;;30.10;90.10;;;31.06;40.18;101141.56;4932240;29;19922;-76
2023/06/29 08:27:43;;;;;;;;;;;30.50;87.60;;;31.56;39.31;101147.78;4933599;28;19914;-77
2023/06/29 08:30:12;;;;;;;;;;;30.80;86.90;;;31.93;38.65;101151.13;4951345;28;19962;-76
2023/06/29 08:32:38;;;;;;;;;;;31.20;86.00;;;32.04;37.78;101156.03;4944363;28;20614;-77
2023/06/29 08:35:04;;;;;;;;;;;31.50;84.30;;;31.89;38.33;101155.31;4946498;28;20017;-77
2023/06/29 08:37:33;;;;;;;;;;;31.70;83.60;;;31.63;37.57;101148.66;4930204;29;20667;-78
2023/06/29 08:40:06;;;;;;;;;;;31.70;82.40;;;31.65;37.78;101153.91;4931039;29;19953;-78
2023/06/29 08:42:38;;;;;;;;;;;31.70;82.60;;;31.61;38.35;101150.75;4930562;29;19918;-76
2023/06/29 08:45:09;;;;;;;;;;;31.60;83.20;;;31.46;39.31;101144.59;4930924;29;19972;-76
2023/06/29 08:47:38;;;;;;;;;;;31.60;84.20;;;31.17;40.04;101135.56;4930221;29;19961;-76
2023/06/29 08:50:05;;;;;;;;;;;31.40;85.20;;;30.58;40.06;101131.22;4945227;28;19950;-76
2023/06/29 08:52:39;;;;;;;;;;;31.10;84.70;;;30.48;40.96;101124.47;4946008;28;20272;-77
2023/06/29 08:55:05;;;;;;;;;;;30.80;86.60;;;30.21;40.70;101127.66;4944729;28;19933;-77
2023/06/29 08:57:32;;;;;;;;;;;30.50;85.80;;;30.04;41.03;101112.63;4928556;29;19910;-76
2023/06/29 09:00:05;;;;;;;;;;;30.40;86.30;;;29.88;42.37;101110.97;4930807;29;20006;-77
2023/06/29 09:02:32;;;;;;;;;;;30.20;88.20;;;29.75;42.65;101102.66;4928921;29;19921;-78
2023/06/29 09:04:58;;;;;;;;;;;30.00;88.60;;;29.83;43.08;101102.56;4931230;29;21550;-77
2023/06/29 09:07:27;;;;;;;;;;;30.00;90.00;;;30.22;42.56;101101.38;4946374;29;20394;-78
2023/06/29 09:09:56;;;;;;;;;;;30.10;89.80;;;30.42;40.52;101117.91;4946428;28;20005;-77
2023/06/29 09:12:27;;;;;;;;;;;30.30;86.50;;;30.45;40.37;101112.94;4946300;28;19927;-77
2023/06/29 09:14:57;;;;;;;;;;;30.50;86.00;;;30.35;40.85;101117.84;4914348;29;19997;-78
2023/06/29 09:17:26;;;;;;;;;;;30.50;86.00;;;30.18;40.36;101110.94;4930697;29;19911;-77
2023/06/29 09:19:55;;;;;;;;;;;30.50;85.20;;;30.09;40.68;101115.63;4929436;29;20366;-77
2023/06/29 09:22:21;;;;;;;;;;;30.30;85.60;;;30.14;42.54;101107.75;4930053;29;20310;-77
2023/06/29 09:24:48;;;;;;;;;;;30.30;88.50;;;30.20;42.65;101104.25;4930187;29;20367;-76
2023/06/29 09:27:17;;;;;;;;;;;30.30;89.40;;;30.24;41.81;101107.44;4945082;29;19919;-77
2023/06/29 09:29:50;;;;;;;;;;;30.30;88.00;;;30.31;41.52;101112.97;4946902;28;19934;-76
2023/06/29 09:32:16;;;;;;;;;;;30.30;87.50;;;30.16;41.87;101104.84;4913044;29;20374;-78
2023/06/29 09:34:48;;;;;;;;;;;30.30;88.40;;;29.56;43.37;101098.63;4929203;29;19915;-77
2023/06/29 09:37:17;;;;;;;;;;;30.20;88.90;;;29.26;43.13;101097.75;4928333;29;19914;-77
2023/06/29 09:40:14;;;;;;;;;;;29.90;88.10;;;28.76;44.11;101081.91;4944623;28;19910;-77
2023/06/29 09:42:43;;;;;;;;;;;29.50;89.00;;;28.20;45.04;101086.69;4926888;29;19911;-78
2023/06/29 09:45:15;;;;;;;;;;;29.00;90.10;;;27.70;46.42;101079.81;4944099;28;19923;-77
2023/06/29 09:47:49;;;;;;;;;;;28.60;90.80;;;27.17;46.32;101077.59;4929204;29;19911;-77
2023/06/29 09:50:22;;;;;;;;;;;28.10;90.50;;;26.83;47.51;101064.28;4929281;29;19919;-77
2023/06/29 09:52:52;;;;;;;;;;;27.70;91.30;;;26.47;47.35;101059.16;4927986;29;19919;-77
2023/06/29 09:55:30;;;;;;;;;;;27.30;91.00;;;26.16;48.26;101050.88;4930783;28;19919;-76
2023/06/29 09:58:00;;;;;;;;;;;27.00;91.40;;;26.13;49.37;101051.19;4930177;29;20345;-77
2023/06/29 10:00:27;;;;;;;;;;;26.90;92.60;;;26.10;50.33;101054.22;4930093;29;20303;-77
2023/06/29 10:02:56;;;;;;;;;;;26.70;93.20;;;26.08;51.29;101053.53;4928408;29;19929;-77
2023/06/29 10:05:30;;;;;;;;;;;26.70;93.90;;;26.23;50.56;101054.59;4930373;29;19923;-77
2023/06/29 10:08:02;;;;;;;;;;;26.70;93.70;;;26.30;50.44;101054.75;4929504;29;20009;-77
2023/06/29 10:10:34;;;;;;;;;;;26.70;93.80;;;26.37;50.86;101059.34;4930419;29;19918;-77
2023/06/29 10:13:04;;;;;;;;;;;26.70;94.10;;;26.47;50.68;101061.03;4944876;28;19919;-77
2023/06/29 10:15:37;;;;;;;;;;;26.80;94.10;;;26.59;50.86;101054.31;4933415;29;19988;-77
2023/06/29 10:18:21;;;;;;;;;;;26.90;94.20;;;26.90;49.58;101064.44;4934381;29;19918;-77
2023/06/29 10:20:47;;;;;;;;;;;27.00;93.70;;;27.13;49.89;101064.59;4932664;29;19918;-77
2023/06/29 10:23:19;;;;;;;;;;;27.20;93.80;;;27.26;48.95;101062.22;4932724;29;19917;-76
2023/06/29 10:25:50;;;;;;;;;;;27.40;93.50;;;27.49;47.35;101070.41;4931118;29;19919;-77
2023/06/29 10:28:17;;;;;;;;;;;27.60;92.40;;;27.70;47.38;101072.53;4934268;29;19922;-76
2023/06/29 10:30:47;;;;;;;;;;;27.80;92.40;;;27.87;46.24;101067.94;4949291;29;19915;-77
2023/06/29 10:33:23;;;;;;;;;;;28.00;91.90;;;28.05;47.16;101073.06;4933181;29;19926;-77
2023/06/29 10:36:02;;;;;;;;;;;28.10;92.60;;;28.43;45.20;101075.91;4946774;28;19923;-77
2023/06/29 10:38:34;;;;;;;;;;;28.30;91.50;;;28.76;45.61;101071.06;4949161;28;19922;-77
2023/06/29 10:41:25;;;;;;;;;;;28.60;92.00;;;29.23;44.83;101072.69;4948071;29;20306;-77
2023/06/29 10:44:08;;;;;;;;;;;29.30;90.20;;;29.44;43.83;101085.53;4947404;29;19961;-78
2023/06/29 10:46:51;;;;;;;;;;;29.30;90.80;;;29.59;43.64;101080.09;4933113;29;19914;-77
2023/06/29 10:49:23;;;;;;;;;;;29.60;90.90;;;29.67;43.79;101089.16;4932589;29;20400;-77
2023/06/29 10:51:50;;;;;;;;;;;29.60;90.50;;;29.62;43.53;101085.13;4929914;29;19973;-77
2023/06/29 10:54:16;;;;;;;;;;;29.70;90.40;;;29.53;43.45;101086.28;4947901;28;20397;-77
2023/06/29 10:57:01;;;;;;;;;;;29.80;90.10;;;29.47;43.72;101084.31;4948824;28;19914;-78
2023/06/29 10:59:31;;;;;;;;;;;29.70;90.20;;;29.11;45.17;101079.59;4946007;29;19910;-76
2023/06/29 11:01:58;;;;;;;;;;;29.50;91.00;;;28.96;45.97;101067.84;4933049;29;20006;-76
2023/06/29 11:04:27;;;;;;;;;;;29.10;91.10;;;28.18;47.47;101062.50;4947674;29;19915;-77
2023/06/29 11:06:53;;;;;;;;;;;29.00;91.70;;;27.34;48.30;101053.22;4948186;28;19925;-77
2023/06/29 11:09:25;;;;;;;;;;;28.50;91.80;;;26.69;50.39;101040.63;4932756;29;19910;-77
2023/06/29 11:11:54;;;;;;;;;;;27.90;92.50;;;26.43;51.97;101038.06;4931901;29;19910;-77